createdAt,value
2018-06-16T00:00:50.656Z,1012.35
2018-06-16T00:01:50.644Z,1012.37
2018-06-16T00:02:50.649Z,1012.32
2018-06-16T00:03:50.615Z,1012.35
2018-06-16T00:04:50.603Z,1012.35
2018-06-16T00:05:50.609Z,1012.33
2018-06-16T00:06:50.607Z,1012.34
2018-06-16T00:07:50.566Z,1012.35
2018-06-16T00:08:50.561Z,1012.35
2018-06-16T00:09:50.543Z,1012.37
2018-06-16T00:10:50.521Z,1012.33
2018-06-16T00:11:50.527Z,1012.35
2018-06-16T00:12:50.500Z,1012.32
2018-06-16T00:13:50.508Z,1012.31
2018-06-16T00:14:50.477Z,1012.33
2018-06-16T00:15:50.464Z,1012.36
2018-06-16T00:16:50.447Z,1012.38
2018-06-16T00:17:50.430Z,1012.33
2018-06-16T00:18:50.439Z,1012.34
2018-06-16T00:19:50.405Z,1012.31
2018-06-16T00:20:50.397Z,1012.31
2018-06-16T00:21:50.388Z,1012.30
2018-06-16T00:22:50.368Z,1012.32
2018-06-16T00:23:50.374Z,1012.37
2018-06-16T00:24:50.342Z,1012.32
2018-06-16T00:25:50.327Z,1012.34
2018-06-16T00:26:50.322Z,1012.35
2018-06-16T00:27:50.304Z,1012.33
2018-06-16T00:28:50.304Z,1012.33
2018-06-16T00:29:50.278Z,1012.35
2018-06-16T00:30:50.261Z,1012.27
2018-06-16T00:31:50.256Z,1012.28
2018-06-16T00:32:50.235Z,1012.26
2018-06-16T00:33:50.249Z,1012.27
2018-06-16T00:34:50.229Z,1012.22
2018-06-16T00:35:50.196Z,1012.27
2018-06-16T00:36:50.183Z,1012.27
2018-06-16T00:37:50.170Z,1012.26
2018-06-16T00:38:50.159Z,1012.26
2018-06-16T00:39:50.160Z,1012.25
2018-06-16T00:40:50.129Z,1012.25
2018-06-16T00:41:50.120Z,1012.26
2018-06-16T00:42:50.100Z,1012.25
2018-06-16T00:43:50.092Z,1012.25
2018-06-16T00:44:50.073Z,1012.24
2018-06-16T00:45:50.071Z,1012.26
2018-06-16T00:46:50.048Z,1012.25
2018-06-16T00:47:50.037Z,1012.24
2018-06-16T00:48:50.021Z,1012.23
2018-06-16T00:49:50.011Z,1012.24
2018-06-16T00:50:50.023Z,1012.26
2018-06-16T00:51:49.982Z,1012.27
2018-06-16T00:52:49.983Z,1012.30
2018-06-16T00:53:49.953Z,1012.28
2018-06-16T00:54:49.943Z,1012.29
2018-06-16T00:55:49.950Z,1012.27
2018-06-16T00:56:49.915Z,1012.22
2018-06-16T00:57:49.915Z,1012.26
2018-06-16T00:58:49.885Z,1012.29
2018-06-16T00:59:49.871Z,1012.27
2018-06-16T01:00:49.864Z,1012.24
2018-06-16T01:01:49.858Z,1012.28
2018-06-16T01:02:49.844Z,1012.26
2018-06-16T01:03:49.823Z,1012.28
2018-06-16T01:04:49.826Z,1012.24
2018-06-16T01:05:49.797Z,1012.24
2018-06-16T01:06:49.781Z,1012.24
2018-06-16T01:07:49.768Z,1012.24
2018-06-16T01:08:49.760Z,1012.22
2018-06-16T01:09:49.737Z,1012.23
2018-06-16T01:10:49.746Z,1012.22
2018-06-16T01:11:49.715Z,1012.22
2018-06-16T01:12:49.703Z,1012.23
2018-06-16T01:13:49.691Z,1012.22
2018-06-16T01:14:49.682Z,1012.23
2018-06-16T01:15:49.679Z,1012.22
2018-06-16T01:16:49.648Z,1012.17
2018-06-16T01:17:49.653Z,1012.24
2018-06-16T01:18:49.632Z,1012.24
2018-06-16T01:19:49.612Z,1012.27
2018-06-16T01:20:49.610Z,1012.24
2018-06-16T01:21:49.577Z,1012.24
2018-06-16T01:22:49.591Z,1012.22
2018-06-16T01:23:49.554Z,1012.21
2018-06-16T01:24:49.545Z,1012.18
2018-06-16T01:25:49.529Z,1012.21
2018-06-16T01:26:49.527Z,1012.19
2018-06-16T01:27:49.510Z,1012.18
2018-06-16T01:28:49.488Z,1012.20
2018-06-16T01:29:49.488Z,1012.19
2018-06-16T01:30:49.462Z,1012.19
2018-06-16T01:31:49.448Z,1012.18
2018-06-16T01:32:49.449Z,1012.17
2018-06-16T01:33:49.436Z,1012.21
2018-06-16T01:34:49.409Z,1012.19
2018-06-16T01:35:49.395Z,1012.17
2018-06-16T01:36:49.378Z,1012.18
2018-06-16T01:37:49.373Z,1012.13
2018-06-16T01:38:49.368Z,1012.14
2018-06-16T01:39:49.344Z,1012.16
2018-06-16T01:40:49.327Z,1012.16
2018-06-16T01:41:49.316Z,1012.12
2018-06-16T01:42:49.303Z,1012.14
2018-06-16T01:43:49.311Z,1012.12
2018-06-16T01:44:49.283Z,1012.10
2018-06-16T01:45:49.258Z,1012.11
2018-06-16T01:46:49.247Z,1012.12
2018-06-16T01:47:49.241Z,1012.12
2018-06-16T01:48:49.241Z,1012.13
2018-06-16T01:49:49.229Z,1012.12
2018-06-16T01:50:49.197Z,1012.17
2018-06-16T01:51:49.182Z,1012.14
2018-06-16T01:52:49.171Z,1012.15
2018-06-16T01:53:49.165Z,1012.13
2018-06-16T01:54:49.146Z,1012.17
2018-06-16T01:55:49.141Z,1012.15
2018-06-16T01:56:49.119Z,1012.15
2018-06-16T01:57:49.106Z,1012.10
2018-06-16T01:58:49.097Z,1012.11
2018-06-16T01:59:49.081Z,1012.13
2018-06-16T02:00:49.077Z,1012.11
2018-06-16T02:01:49.047Z,1012.12
2018-06-16T02:02:49.036Z,1012.12
2018-06-16T02:03:49.021Z,1012.14
2018-06-16T02:04:49.009Z,1012.15
2018-06-16T02:05:49.011Z,1012.13
2018-06-16T02:06:48.983Z,1012.10
2018-06-16T02:07:48.966Z,1012.10
2018-06-16T02:08:48.955Z,1012.10
2018-06-16T02:09:48.947Z,1012.08
2018-06-16T02:10:48.929Z,1012.08
2018-06-16T02:11:48.930Z,1012.07
2018-06-16T02:12:48.897Z,1012.11
2018-06-16T02:13:48.889Z,1012.08
2018-06-16T02:14:48.892Z,1012.09
2018-06-16T02:15:48.860Z,1012.10
2018-06-16T02:16:48.862Z,1012.10
2018-06-16T02:17:48.831Z,1012.11
2018-06-16T02:18:48.823Z,1012.13
2018-06-16T02:19:48.804Z,1012.15
2018-06-16T02:20:48.789Z,1012.12
2018-06-16T02:21:48.809Z,1012.10
2018-06-16T02:22:48.762Z,1012.09
2018-06-16T02:23:48.757Z,1012.09
2018-06-16T02:24:48.738Z,1012.12
2018-06-16T02:25:48.737Z,1012.12
2018-06-16T02:26:48.715Z,1012.10
2018-06-16T02:27:48.714Z,1012.14
2018-06-16T02:28:48.678Z,1012.12
2018-06-16T02:29:48.675Z,1012.18
2018-06-16T02:30:48.659Z,1012.16
2018-06-16T02:31:48.646Z,1012.15
2018-06-16T02:32:48.659Z,1012.17
2018-06-16T02:33:48.619Z,1012.12
2018-06-16T02:34:48.604Z,1012.10
2018-06-16T02:35:48.591Z,1012.13
2018-06-16T02:36:48.584Z,1012.13
2018-06-16T02:37:48.564Z,1012.16
2018-06-16T02:38:48.566Z,1012.19
2018-06-16T02:39:48.536Z,1012.16
2018-06-16T02:40:48.521Z,1012.17
2018-06-16T02:41:48.509Z,1012.16
2018-06-16T02:42:48.494Z,1012.14
2018-06-16T02:43:48.498Z,1012.14
2018-06-16T02:44:48.475Z,1012.19
2018-06-16T02:45:48.456Z,1012.19
2018-06-16T02:46:48.437Z,1012.17
2018-06-16T02:47:48.427Z,1012.14
2018-06-16T02:48:48.430Z,1012.12
2018-06-16T02:49:48.402Z,1012.11
2018-06-16T02:50:48.383Z,1012.13
2018-06-16T02:51:48.389Z,1012.11
2018-06-16T02:52:48.361Z,1012.09
2018-06-16T02:53:48.363Z,1012.11
2018-06-16T02:54:48.348Z,1012.10
2018-06-16T02:55:48.329Z,1012.12
2018-06-16T02:56:48.307Z,1012.08
2018-06-16T02:57:48.292Z,1012.08
2018-06-16T02:58:48.319Z,1012.09
2018-06-16T02:59:48.263Z,1012.08
2018-06-16T03:00:48.250Z,1012.09
2018-06-16T03:01:48.236Z,1012.14
2018-06-16T03:02:48.222Z,1012.12
2018-06-16T03:03:48.211Z,1012.09
2018-06-16T03:04:48.213Z,1012.10
2018-06-16T03:05:48.179Z,1012.11
2018-06-16T03:06:48.174Z,1012.06
2018-06-16T03:07:48.158Z,1012.08
2018-06-16T03:08:48.156Z,1012.10
2018-06-16T03:09:48.131Z,1012.07
2018-06-16T03:10:48.107Z,1012.09
2018-06-16T03:11:56.503Z,1012.07
2018-06-16T03:12:48.086Z,1012.08
2018-06-16T03:13:48.074Z,1012.04
2018-06-16T03:14:48.068Z,1012.07
2018-06-16T03:15:48.039Z,1012.04
2018-06-16T03:16:48.033Z,1012.10
2018-06-16T03:17:48.012Z,1012.07
2018-06-16T03:19:09.019Z,1012.02
2018-06-16T03:19:48.004Z,1012.02
2018-06-16T03:20:47.995Z,1012.01
2018-06-16T03:21:47.959Z,1012.02
2018-06-16T03:22:47.941Z,1012.05
2018-06-16T03:23:47.939Z,1012.05
2018-06-16T03:24:47.914Z,1012.04
2018-06-16T03:25:47.933Z,1012.05
2018-06-16T03:26:47.894Z,1012.05
2018-06-16T03:27:47.876Z,1012.08
2018-06-16T03:28:47.862Z,1012.09
2018-06-16T03:29:47.848Z,1012.08
2018-06-16T03:30:47.845Z,1012.03
2018-06-16T03:31:47.835Z,1012.12
2018-06-16T03:32:47.805Z,1012.13
2018-06-16T03:33:47.789Z,1012.11
2018-06-16T03:34:47.784Z,1012.09
2018-06-16T03:35:47.798Z,1012.12
2018-06-16T03:36:47.751Z,1012.08
2018-06-16T03:37:47.744Z,1012.09
2018-06-16T03:38:47.721Z,1012.08
2018-06-16T03:39:47.716Z,1012.06
2018-06-16T03:40:47.713Z,1012.11
2018-06-16T03:41:47.683Z,1012.04
2018-06-16T03:42:47.685Z,1012.05
2018-06-16T03:43:47.655Z,1012.01
2018-06-16T03:44:47.671Z,1012.01
2018-06-16T03:45:47.620Z,1012.03
2018-06-16T03:46:47.633Z,1011.99
2018-06-16T03:47:47.606Z,1012.01
2018-06-16T03:48:47.579Z,1012.00
2018-06-16T03:49:47.569Z,1012.03
2018-06-16T03:50:47.553Z,1012.02
2018-06-16T03:51:47.576Z,1012.01
2018-06-16T03:52:47.553Z,1012.07
2018-06-16T03:53:47.514Z,1012.05
2018-06-16T03:54:47.515Z,1012.04
2018-06-16T03:55:47.485Z,1012.05
2018-06-16T03:56:47.471Z,1012.06
2018-06-16T03:57:47.469Z,1012.08
2018-06-16T03:58:47.460Z,1012.05
2018-06-16T03:59:47.426Z,1012.06
2018-06-16T04:00:47.414Z,1012.04
2018-06-16T04:01:47.458Z,1012.06
2018-06-16T04:02:47.434Z,1012.07
2018-06-16T04:03:47.380Z,1012.09
2018-06-16T04:04:47.362Z,1012.06
2018-06-16T04:05:47.351Z,1012.08
2018-06-16T04:06:47.339Z,1012.06
2018-06-16T04:07:47.324Z,1012.06
2018-06-16T04:08:47.325Z,1012.03
2018-06-16T04:09:47.292Z,1012.04
2018-06-16T04:10:47.281Z,1012.05
2018-06-16T04:11:47.261Z,1012.06
2018-06-16T04:12:47.252Z,1012.09
2018-06-16T04:13:47.252Z,1012.12
2018-06-16T04:14:47.259Z,1012.14
2018-06-16T04:15:47.216Z,1012.14
2018-06-16T04:16:47.209Z,1012.15
2018-06-16T04:17:47.181Z,1012.16
2018-06-16T04:18:47.179Z,1012.15
2018-06-16T04:19:47.185Z,1012.20
2018-06-16T04:20:47.141Z,1012.20
2018-06-16T04:21:47.139Z,1012.24
2018-06-16T04:22:47.121Z,1012.26
2018-06-16T04:23:47.168Z,1012.17
2018-06-16T04:24:47.111Z,1012.18
2018-06-16T04:25:47.092Z,1012.21
2018-06-16T04:26:47.070Z,1012.20
2018-06-16T04:27:47.087Z,1012.21
2018-06-16T04:28:47.038Z,1012.17
2018-06-16T04:29:47.038Z,1012.21
2018-06-16T04:30:47.024Z,1012.19
2018-06-16T04:31:47.013Z,1012.22
2018-06-16T04:32:46.981Z,1012.24
2018-06-16T04:33:46.963Z,1012.22
2018-06-16T04:34:46.978Z,1012.23
2018-06-16T04:35:46.959Z,1012.22
2018-06-16T04:36:46.930Z,1012.24
2018-06-16T04:37:46.922Z,1012.28
2018-06-16T04:38:46.894Z,1012.30
2018-06-16T04:39:46.891Z,1012.25
2018-06-16T04:40:46.884Z,1012.27
2018-06-16T04:41:46.875Z,1012.27
2018-06-16T04:42:46.847Z,1012.24
2018-06-16T04:43:46.835Z,1012.25
2018-06-16T04:44:46.821Z,1012.26
2018-06-16T04:45:46.825Z,1012.23
2018-06-16T04:46:46.805Z,1012.24
2018-06-16T04:47:46.799Z,1012.24
2018-06-16T04:48:46.758Z,1012.25
2018-06-16T04:49:46.744Z,1012.27
2018-06-16T04:50:46.733Z,1012.26
2018-06-16T04:51:46.742Z,1012.25
2018-06-16T04:52:46.703Z,1012.26
2018-06-16T04:53:46.695Z,1012.28
2018-06-16T04:54:46.691Z,1012.24
2018-06-16T04:55:46.662Z,1012.30
2018-06-16T04:56:46.664Z,1012.28
2018-06-16T04:57:46.637Z,1012.27
2018-06-16T04:58:46.640Z,1012.25
2018-06-16T04:59:46.623Z,1012.26
2018-06-16T05:00:46.613Z,1012.23
2018-06-16T05:01:46.594Z,1012.25
2018-06-16T05:02:46.568Z,1012.23
2018-06-16T05:03:46.573Z,1012.25
2018-06-16T05:04:46.558Z,1012.24
2018-06-16T05:05:46.548Z,1012.27
2018-06-16T05:06:46.536Z,1012.26
2018-06-16T05:07:46.506Z,1012.26
2018-06-16T05:08:46.512Z,1012.25
2018-06-16T05:09:46.482Z,1012.22
2018-06-16T05:10:46.462Z,1012.23
2018-06-16T05:11:46.455Z,1012.26
2018-06-16T05:12:46.438Z,1012.23
2018-06-16T05:13:46.423Z,1012.23
2018-06-16T05:14:46.430Z,1012.25
2018-06-16T05:15:46.415Z,1012.29
2018-06-16T05:16:46.396Z,1012.30
2018-06-16T05:17:46.373Z,1012.28
2018-06-16T05:18:46.384Z,1012.33
2018-06-16T05:19:46.346Z,1012.33
2018-06-16T05:20:46.336Z,1012.28
2018-06-16T05:21:46.328Z,1012.33
2018-06-16T05:22:46.312Z,1012.28
2018-06-16T05:23:46.300Z,1012.30
2018-06-16T05:24:46.311Z,1012.27
2018-06-16T05:25:46.316Z,1012.31
2018-06-16T05:26:46.258Z,1012.29
2018-06-16T05:27:46.250Z,1012.29
2018-06-16T05:28:46.253Z,1012.31
2018-06-16T05:29:46.224Z,1012.31
2018-06-16T05:30:46.224Z,1012.30
2018-06-16T05:31:46.203Z,1012.31
2018-06-16T05:32:46.185Z,1012.36
2018-06-16T05:33:46.171Z,1012.34
2018-06-16T05:34:46.179Z,1012.38
2018-06-16T05:35:46.142Z,1012.40
2018-06-16T05:36:46.133Z,1012.43
2018-06-16T05:37:46.130Z,1012.38
2018-06-16T05:38:46.109Z,1012.35
2018-06-16T05:39:46.093Z,1012.34
2018-06-16T05:40:46.096Z,1012.37
2018-06-16T05:41:46.070Z,1012.39
2018-06-16T05:42:46.056Z,1012.39
2018-06-16T05:43:46.045Z,1012.39
2018-06-16T05:44:46.026Z,1012.40
2018-06-16T05:45:46.020Z,1012.40
2018-06-16T05:46:46.025Z,1012.42
2018-06-16T05:47:45.986Z,1012.40
2018-06-16T05:48:45.980Z,1012.44
2018-06-16T05:49:45.968Z,1012.42
2018-06-16T05:51:06.964Z,1012.40
2018-06-16T05:51:45.942Z,1012.40
2018-06-16T05:52:45.924Z,1012.42
2018-06-16T05:53:45.917Z,1012.42
2018-06-16T05:54:45.901Z,1012.44
2018-06-16T05:55:45.888Z,1012.43
2018-06-16T05:56:45.892Z,1012.45
2018-06-16T05:57:45.859Z,1012.44
2018-06-16T05:58:45.847Z,1012.44
2018-06-16T05:59:45.846Z,1012.43
2018-06-16T06:00:45.839Z,1012.45
2018-06-16T06:01:45.824Z,1012.43
2018-06-16T06:02:45.815Z,1012.46
2018-06-16T06:03:45.787Z,1012.45
2018-06-16T06:04:45.771Z,1012.47
2018-06-16T06:05:45.761Z,1012.44
2018-06-16T06:06:45.761Z,1012.42
2018-06-16T06:07:45.739Z,1012.40
2018-06-16T06:08:45.724Z,1012.44
2018-06-16T06:09:45.716Z,1012.46
2018-06-16T06:10:45.693Z,1012.43
2018-06-16T06:11:45.699Z,1012.48
2018-06-16T06:12:45.670Z,1012.47
2018-06-16T06:13:45.655Z,1012.45
2018-06-16T06:14:45.652Z,1012.47
2018-06-16T06:15:45.683Z,1012.50
2018-06-16T06:16:45.641Z,1012.48
2018-06-16T06:17:45.609Z,1012.50
2018-06-16T06:18:45.603Z,1012.47
2018-06-16T06:19:45.580Z,1012.48
2018-06-16T06:20:45.572Z,1012.47
2018-06-16T06:21:45.558Z,1012.47
2018-06-16T06:22:45.568Z,1012.47
2018-06-16T06:23:45.536Z,1012.49
2018-06-16T06:24:45.519Z,1012.46
2018-06-16T06:25:45.505Z,1012.48
2018-06-16T06:26:45.493Z,1012.45
2018-06-16T06:27:45.500Z,1012.43
2018-06-16T06:28:45.473Z,1012.44
2018-06-16T06:29:45.455Z,1012.47
2018-06-16T06:30:45.451Z,1012.44
2018-06-16T06:31:45.429Z,1012.46
2018-06-16T06:32:45.439Z,1012.48
2018-06-16T06:33:45.411Z,1012.48
2018-06-16T06:34:45.402Z,1012.52
2018-06-16T06:35:45.387Z,1012.50
2018-06-16T06:36:45.367Z,1012.48
2018-06-16T06:37:45.360Z,1012.48
2018-06-16T06:38:45.388Z,1012.46
2018-06-16T06:39:45.330Z,1012.46
2018-06-16T06:40:45.327Z,1012.45
2018-06-16T06:41:45.304Z,1012.44
2018-06-16T06:42:45.313Z,1012.45
2018-06-16T06:43:45.277Z,1012.48
2018-06-16T06:44:45.271Z,1012.52
2018-06-16T06:45:45.250Z,1012.52
2018-06-16T06:46:45.261Z,1012.55
2018-06-16T06:47:45.249Z,1012.56
2018-06-16T06:48:45.249Z,1012.55
2018-06-16T06:49:45.227Z,1012.54
2018-06-16T06:50:45.192Z,1012.60
2018-06-16T06:51:45.262Z,1012.57
2018-06-16T06:52:45.185Z,1012.56
2018-06-16T06:53:45.184Z,1012.54
2018-06-16T06:54:53.590Z,1012.55
2018-06-16T06:55:45.133Z,1012.52
2018-06-16T06:56:45.128Z,1012.52
2018-06-16T06:57:45.126Z,1012.57
2018-06-16T06:58:45.116Z,1012.57
2018-06-16T06:59:45.112Z,1012.58
2018-06-16T07:00:45.095Z,1012.58
2018-06-16T07:01:45.066Z,1012.59
2018-06-16T07:02:45.057Z,1012.55
2018-06-16T07:03:45.057Z,1012.60
2018-06-16T07:04:45.043Z,1012.59
2018-06-16T07:05:45.035Z,1012.58
2018-06-16T07:06:45.001Z,1012.62
2018-06-16T07:07:44.989Z,1012.59
2018-06-16T07:08:44.978Z,1012.63
2018-06-16T07:09:44.982Z,1012.63
2018-06-16T07:10:45.014Z,1012.64
2018-06-16T07:11:44.945Z,1012.65
2018-06-16T07:12:44.941Z,1012.64
2018-06-16T07:13:44.925Z,1012.60
2018-06-16T07:14:44.912Z,1012.60
2018-06-16T07:15:44.893Z,1012.62
2018-06-16T07:16:44.899Z,1012.57
2018-06-16T07:17:44.883Z,1012.61
2018-06-16T07:18:44.865Z,1012.64
2018-06-16T07:19:44.849Z,1012.59
2018-06-16T07:20:44.833Z,1012.61
2018-06-16T07:21:44.823Z,1012.59
2018-06-16T07:22:44.832Z,1012.63
2018-06-16T07:23:44.808Z,1012.59
2018-06-16T07:24:44.806Z,1012.63
2018-06-16T07:25:44.772Z,1012.64
2018-06-16T07:26:44.771Z,1012.59
2018-06-16T07:27:44.774Z,1012.61
2018-06-16T07:28:44.744Z,1012.60
2018-06-16T07:29:44.733Z,1012.59
2018-06-16T07:30:44.721Z,1012.60
2018-06-16T07:31:44.724Z,1012.69
2018-06-16T07:32:44.704Z,1012.64
2018-06-16T07:33:44.706Z,1012.66
2018-06-16T07:34:44.679Z,1012.65
2018-06-16T07:35:44.669Z,1012.60
2018-06-16T07:36:44.669Z,1012.61
2018-06-16T07:37:44.663Z,1012.59
2018-06-16T07:38:44.631Z,1012.58
2018-06-16T07:39:44.629Z,1012.59
2018-06-16T07:40:44.619Z,1012.61
2018-06-16T07:41:44.597Z,1012.59
2018-06-16T07:42:44.606Z,1012.55
2018-06-16T07:43:44.581Z,1012.54
2018-06-16T07:44:44.595Z,1012.57
2018-06-16T07:45:44.553Z,1012.55
2018-06-16T07:46:44.550Z,1012.62
2018-06-16T07:47:44.537Z,1012.58
2018-06-16T07:48:44.535Z,1012.57
2018-06-16T07:49:44.529Z,1012.59
2018-06-16T07:50:44.504Z,1012.60
2018-06-16T07:51:44.490Z,1012.61
2018-06-16T07:52:44.488Z,1012.63
2018-06-16T07:53:44.470Z,1012.59
2018-06-16T07:54:44.477Z,1012.61
2018-06-16T07:55:44.447Z,1012.55
2018-06-16T07:56:44.457Z,1012.59
2018-06-16T07:57:44.428Z,1012.63
2018-06-16T07:58:44.418Z,1012.59
2018-06-16T07:59:44.423Z,1012.59
2018-06-16T08:00:44.397Z,1012.60
2018-06-16T08:01:44.390Z,1012.61
2018-06-16T08:02:44.409Z,1012.59
2018-06-16T08:03:44.366Z,1012.60
2018-06-16T08:04:44.374Z,1012.60
2018-06-16T08:05:44.346Z,1012.63
2018-06-16T08:06:44.336Z,1012.63
2018-06-16T08:07:44.321Z,1012.62
2018-06-16T08:08:44.317Z,1012.68
2018-06-16T08:09:44.306Z,1012.66
2018-06-16T08:10:44.313Z,1012.64
2018-06-16T08:11:44.287Z,1012.63
2018-06-16T08:12:44.303Z,1012.61
2018-06-16T08:13:44.265Z,1012.63
2018-06-16T08:14:44.252Z,1012.61
2018-06-16T08:15:44.243Z,1012.61
2018-06-16T08:16:44.250Z,1012.65
2018-06-16T08:17:44.219Z,1012.62
2018-06-16T08:18:44.208Z,1012.64
2018-06-16T08:19:44.204Z,1012.68
2018-06-16T08:20:44.207Z,1012.67
2018-06-16T08:21:44.195Z,1012.67
2018-06-16T08:22:44.170Z,1012.73
2018-06-16T08:23:44.161Z,1012.76
2018-06-16T08:24:44.150Z,1012.70
2018-06-16T08:25:44.147Z,1012.66
2018-06-16T08:26:44.151Z,1012.70
2018-06-16T08:27:44.121Z,1012.62
2018-06-16T08:28:44.112Z,1012.69
2018-06-16T08:29:44.108Z,1012.67
2018-06-16T08:30:44.092Z,1012.65
2018-06-16T08:31:44.080Z,1012.60
2018-06-16T08:32:44.086Z,1012.59
2018-06-16T08:33:44.060Z,1012.60
2018-06-16T08:34:44.081Z,1012.62
2018-06-16T08:35:44.039Z,1012.58
2018-06-16T08:36:44.032Z,1012.62
2018-06-16T08:37:44.040Z,1012.58
2018-06-16T08:38:44.007Z,1012.57
2018-06-16T08:39:44.000Z,1012.61
2018-06-16T08:40:43.986Z,1012.59
2018-06-16T08:41:44.001Z,1012.60
2018-06-16T08:42:43.973Z,1012.56
2018-06-16T08:43:43.978Z,1012.55
2018-06-16T08:44:43.947Z,1012.57
2018-06-16T08:45:43.943Z,1012.58
2018-06-16T08:46:43.939Z,1012.60
2018-06-16T08:47:43.928Z,1012.56
2018-06-16T08:48:43.987Z,1012.61
2018-06-16T08:49:43.905Z,1012.59
2018-06-16T08:50:43.892Z,1012.58
2018-06-16T08:51:43.881Z,1012.63
2018-06-16T08:52:43.872Z,1013.62
2018-06-16T08:53:43.883Z,1013.73
2018-06-16T08:54:43.862Z,1012.86
2018-06-16T08:55:43.855Z,1012.58
2018-06-16T08:56:43.837Z,1012.52
2018-06-16T08:57:43.828Z,1012.52
2018-06-16T08:58:43.836Z,1012.57
2018-06-16T08:59:43.810Z,1012.51
2018-06-16T09:00:43.813Z,1012.56
2018-06-16T09:01:43.806Z,1012.49
2018-06-16T09:02:43.785Z,1012.44
2018-06-16T09:03:43.776Z,1012.49
2018-06-16T09:04:43.766Z,1012.60
2018-06-16T09:05:43.775Z,1012.75
2018-06-16T09:06:43.748Z,1012.92
2018-06-16T09:07:43.741Z,1013.03
2018-06-16T09:08:43.754Z,1013.32
2018-06-16T09:09:43.727Z,1013.09
2018-06-16T09:10:43.712Z,1012.94
2018-06-16T09:11:43.711Z,1012.83
2018-06-16T09:12:43.694Z,1012.79
2018-06-16T09:13:43.689Z,1012.74
2018-06-16T09:14:43.698Z,1012.68
2018-06-16T09:15:43.673Z,1012.58
2018-06-16T09:16:43.665Z,1012.59
2018-06-16T09:17:43.660Z,1012.52
2018-06-16T09:18:43.659Z,1012.47
2018-06-16T09:19:43.657Z,1012.48
2018-06-16T09:20:43.646Z,1012.45
2018-06-16T09:21:43.627Z,1012.50
2018-06-16T09:22:43.644Z,1012.50
2018-06-16T09:23:43.613Z,1012.58
2018-06-16T09:24:43.616Z,1012.62
2018-06-16T09:25:43.590Z,1012.63
2018-06-16T09:26:43.587Z,1012.67
2018-06-16T09:27:43.607Z,1012.65
2018-06-16T09:28:43.575Z,1012.72
2018-06-16T09:29:43.564Z,1012.68
2018-06-16T09:30:43.550Z,1012.74
2018-06-16T09:31:43.579Z,1012.80
2018-06-16T09:32:43.537Z,1012.79
2018-06-16T09:33:43.544Z,1012.84
2018-06-16T09:34:43.524Z,1012.84
2018-06-16T09:35:43.518Z,1012.81
2018-06-16T09:36:43.508Z,1012.77
2018-06-16T09:37:43.498Z,1012.78
2018-06-16T09:38:43.507Z,1012.74
2018-06-16T09:39:43.486Z,1012.80
2018-06-16T09:40:43.480Z,1012.85
2018-06-16T09:41:43.469Z,1012.88
2018-06-16T09:42:43.463Z,1012.94
2018-06-16T09:43:43.468Z,1012.83
2018-06-16T09:44:43.450Z,1012.65
2018-06-16T09:45:43.473Z,1012.62
2018-06-16T09:46:43.439Z,1012.60
2018-06-16T09:47:43.441Z,1012.66
2018-06-16T09:48:43.438Z,1012.87
2018-06-16T09:49:43.417Z,1012.89
2018-06-16T09:50:43.427Z,1012.67
2018-06-16T09:51:43.420Z,1012.88
2018-06-16T09:52:43.401Z,1012.85
2018-06-16T09:53:43.393Z,1012.88
2018-06-16T09:54:43.389Z,1012.90
2018-06-16T09:55:43.398Z,1012.97
2018-06-16T09:56:43.382Z,1012.95
2018-06-16T09:57:43.374Z,1012.64
2018-06-16T09:58:43.375Z,1012.75
2018-06-16T09:59:43.376Z,1012.79
2018-06-16T10:00:43.375Z,1012.70
2018-06-16T10:01:43.350Z,1012.57
2018-06-16T10:02:43.350Z,1012.58
2018-06-16T10:03:43.346Z,1012.65
2018-06-16T10:04:43.337Z,1012.89
2018-06-16T10:05:43.348Z,1012.85
2018-06-16T10:06:43.332Z,1012.83
2018-06-16T10:07:43.329Z,1012.95
2018-06-16T10:08:43.325Z,1013.02
2018-06-16T10:09:43.326Z,1012.95
2018-06-16T10:10:43.332Z,1013.01
2018-06-16T10:11:43.314Z,1012.60
2018-06-16T10:12:43.321Z,1012.90
2018-06-16T10:13:43.307Z,1012.83
2018-06-16T10:14:43.302Z,1012.77
2018-06-16T10:15:43.313Z,1012.85
2018-06-16T10:16:43.292Z,1012.75
2018-06-16T10:17:43.306Z,1012.73
2018-06-16T10:18:43.287Z,1012.68
2018-06-16T10:19:43.286Z,1012.71
2018-06-16T10:20:43.307Z,1012.73
2018-06-16T10:21:43.286Z,1012.70
2018-06-16T10:22:43.276Z,1012.68
2018-06-16T10:23:43.279Z,1012.68
2018-06-16T10:24:43.268Z,1012.74
2018-06-16T10:25:43.261Z,1012.75
2018-06-16T10:26:43.278Z,1012.75
2018-06-16T10:27:43.269Z,1012.72
2018-06-16T10:28:43.247Z,1012.79
2018-06-16T10:29:43.242Z,1012.71
2018-06-16T10:30:43.263Z,1012.54
2018-06-16T10:31:43.237Z,1012.47
2018-06-16T10:32:43.253Z,1012.42
2018-06-16T10:33:43.232Z,1012.49
2018-06-16T10:34:43.233Z,1012.44
2018-06-16T10:35:43.226Z,1012.46
2018-06-16T10:36:43.229Z,1012.48
2018-06-16T10:37:43.235Z,1012.44
2018-06-16T10:38:43.220Z,1012.44
2018-06-16T10:39:43.223Z,1012.40
2018-06-16T10:40:43.212Z,1012.42
2018-06-16T10:41:43.205Z,1012.45
2018-06-16T10:42:43.199Z,1012.46
2018-06-16T10:43:43.214Z,1012.43
2018-06-16T10:44:43.193Z,1012.44
2018-06-16T10:45:43.183Z,1012.44
2018-06-16T10:46:43.179Z,1012.39
2018-06-16T10:47:43.181Z,1012.42
2018-06-16T10:48:43.189Z,1012.35
2018-06-16T10:49:43.177Z,1012.38
2018-06-16T10:50:43.164Z,1012.33
2018-06-16T10:51:43.165Z,1012.39
2018-06-16T10:52:43.163Z,1012.44
2018-06-16T10:53:43.149Z,1012.54
2018-06-16T10:55:04.159Z,1012.52
2018-06-16T10:55:43.140Z,1012.45
2018-06-16T10:56:43.138Z,1012.46
2018-06-16T10:57:43.129Z,1012.41
2018-06-16T10:58:43.140Z,1012.38
2018-06-16T10:59:43.140Z,1012.44
2018-06-16T11:00:43.115Z,1012.42
2018-06-16T11:01:43.108Z,1012.42
2018-06-16T11:02:43.105Z,1012.44
2018-06-16T11:03:43.103Z,1012.39
2018-06-16T11:04:43.115Z,1012.41
2018-06-16T11:05:43.094Z,1012.29
2018-06-16T11:06:43.092Z,1012.35
2018-06-16T11:07:43.089Z,1012.39
2018-06-16T11:08:43.082Z,1012.39
2018-06-16T11:09:43.095Z,1012.44
2018-06-16T11:10:43.084Z,1012.41
2018-06-16T11:11:43.076Z,1012.43
2018-06-16T11:12:43.072Z,1012.28
2018-06-16T11:13:43.066Z,1012.22
2018-06-16T11:14:43.066Z,1012.21
2018-06-16T11:15:43.074Z,1012.30
2018-06-16T11:16:43.054Z,1012.23
2018-06-16T11:17:43.048Z,1012.23
2018-06-16T11:18:43.049Z,1012.19
2018-06-16T11:19:43.043Z,1012.24
2018-06-16T11:20:43.042Z,1012.25
2018-06-16T11:21:43.049Z,1012.22
2018-06-16T11:22:43.033Z,1012.25
2018-06-16T11:23:43.027Z,1012.24
2018-06-16T11:24:43.023Z,1012.23
2018-06-16T11:25:43.017Z,1012.19
2018-06-16T11:26:43.028Z,1012.32
2018-06-16T11:27:43.008Z,1012.30
2018-06-16T11:28:43.002Z,1012.26
2018-06-16T11:29:43.009Z,1012.10
2018-06-16T11:30:42.988Z,1012.05
2018-06-16T11:31:43.007Z,1012.06
2018-06-16T11:32:42.983Z,1012.01
2018-06-16T11:33:42.981Z,1012.04
2018-06-16T11:34:42.974Z,1011.92
2018-06-16T11:35:42.967Z,1011.92
2018-06-16T11:36:42.983Z,1011.93
2018-06-16T11:37:42.956Z,1011.90
2018-06-16T11:38:42.970Z,1011.91
2018-06-16T11:39:42.949Z,1011.94
2018-06-16T11:40:42.940Z,1011.95
2018-06-16T11:41:42.957Z,1011.94
2018-06-16T11:42:42.943Z,1011.92
2018-06-16T11:43:42.926Z,1011.93
2018-06-16T11:44:42.911Z,1011.93
2018-06-16T11:45:43.652Z,1011.91
2018-06-16T11:46:42.912Z,1011.86
2018-06-16T11:47:42.889Z,1011.88
2018-06-16T11:48:42.935Z,1011.89
2018-06-16T11:49:42.880Z,1011.91
2018-06-16T11:50:42.864Z,1011.92
2018-06-16T11:51:42.863Z,1011.94
2018-06-16T11:52:42.866Z,1011.89
2018-06-16T11:53:42.865Z,1011.91
2018-06-16T11:54:42.837Z,1011.98
2018-06-16T11:55:42.827Z,1011.87
2018-06-16T11:56:42.820Z,1011.92
2018-06-16T11:57:42.853Z,1011.87
2018-06-16T11:58:42.815Z,1011.84
2018-06-16T11:59:42.806Z,1011.86
2018-06-16T12:00:42.815Z,1011.84
2018-06-16T12:01:42.777Z,1011.83
2018-06-16T12:02:42.769Z,1011.88
2018-06-16T12:03:42.761Z,1011.88
2018-06-16T12:04:42.754Z,1011.90
2018-06-16T12:05:42.743Z,1012.11